sensor_id;sensor_type;location;lat;lon;timestamp;P1;durP1;ratioP1;P2;durP2;ratioP2
23474;SDS011;11910;52.086;21.066;2024-01-15T00:01:47;14.52;;;9.70;;
23474;SDS011;11910;52.086;21.066;2024-01-15T00:04:13;15.50;;;11.15;;
23474;SDS011;11910;52.086;21.066;2024-01-15T00:06:38;17.38;;;12.10;;
23474;SDS011;11910;52.086;21.066;2024-01-15T00:09:04;15.63;;;11.10;;
23474;SDS011;11910;52.086;21.066;2024-01-15T00:11:31;16.70;;;11.48;;
23474;SDS011;11910;52.086;21.066;2024-01-15T00:13:57;18.50;;;11.55;;
23474;SDS011;11910;52.086;21.066;2024-01-15T00:16:23;16.05;;;11.75;;
23474;SDS011;11910;52.086;21.066;2024-01-15T00:18:49;15.15;;;11.30;;
23474;SDS011;11910;52.086;21.066;2024-01-15T00:21:14;16.73;;;12.13;;
23474;SDS011;11910;52.086;21.066;2024-01-15T00:23:43;16.48;;;12.52;;
23474;SDS011;11910;52.086;21.066;2024-01-15T00:26:10;15.68;;;11.30;;
23474;SDS011;11910;52.086;21.066;2024-01-15T00:28:36;15.02;;;10.90;;
23474;SDS011;11910;52.086;21.066;2024-01-15T00:31:02;14.52;;;8.82;;
23474;SDS011;11910;52.086;21.066;2024-01-15T00:33:29;17.67;;;11.73;;
23474;SDS011;11910;52.086;21.066;2024-01-15T00:35:54;16.92;;;11.63;;
23474;SDS011;11910;52.086;21.066;2024-01-15T00:38:20;16.42;;;11.27;;
23474;SDS011;11910;52.086;21.066;2024-01-15T00:40:45;15.55;;;11.48;;
23474;SDS011;11910;52.086;21.066;2024-01-15T00:43:11;15.70;;;11.02;;
23474;SDS011;11910;52.086;21.066;2024-01-15T00:45:37;15.65;;;10.38;;
23474;SDS011;11910;52.086;21.066;2024-01-15T00:48:02;15.93;;;11.52;;
23474;SDS011;11910;52.086;21.066;2024-01-15T00:50:29;16.13;;;11.25;;
23474;SDS011;11910;52.086;21.066;2024-01-15T00:52:54;14.00;;;10.40;;
23474;SDS011;11910;52.086;21.066;2024-01-15T00:55:20;16.38;;;11.80;;
23474;SDS011;11910;52.086;21.066;2024-01-15T00:57:45;18.20;;;13.23;;
23474;SDS011;11910;52.086;21.066;2024-01-15T01:00:11;19.10;;;11.80;;
23474;SDS011;11910;52.086;21.066;2024-01-15T01:02:37;16.98;;;11.98;;
23474;SDS011;11910;52.086;21.066;2024-01-15T01:05:03;16.23;;;12.45;;
23474;SDS011;11910;52.086;21.066;2024-01-15T01:07:29;16.83;;;12.05;;
23474;SDS011;11910;52.086;21.066;2024-01-15T01:09:54;17.88;;;13.48;;
23474;SDS011;11910;52.086;21.066;2024-01-15T01:12:20;16.90;;;12.52;;
23474;SDS011;11910;52.086;21.066;2024-01-15T01:14:46;19.50;;;14.05;;
23474;SDS011;11910;52.086;21.066;2024-01-15T01:17:11;19.60;;;14.10;;
23474;SDS011;11910;52.086;21.066;2024-01-15T01:19:37;19.80;;;14.85;;
23474;SDS011;11910;52.086;21.066;2024-01-15T01:22:03;25.23;;;17.63;;
23474;SDS011;11910;52.086;21.066;2024-01-15T01:24:28;25.02;;;17.75;;
23474;SDS011;11910;52.086;21.066;2024-01-15T01:26:54;24.38;;;16.02;;
23474;SDS011;11910;52.086;21.066;2024-01-15T01:29:20;22.35;;;16.50;;
23474;SDS011;11910;52.086;21.066;2024-01-15T01:31:45;24.08;;;16.85;;
23474;SDS011;11910;52.086;21.066;2024-01-15T01:34:14;23.60;;;17.13;;
23474;SDS011;11910;52.086;21.066;2024-01-15T01:36:41;24.63;;;17.55;;
23474;SDS011;11910;52.086;21.066;2024-01-15T01:39:09;25.63;;;17.75;;
23474;SDS011;11910;52.086;21.066;2024-01-15T01:41:35;21.95;;;16.17;;
23474;SDS011;11910;52.086;21.066;2024-01-15T01:44:01;22.73;;;15.63;;
23474;SDS011;11910;52.086;21.066;2024-01-15T01:46:27;22.85;;;16.13;;
23474;SDS011;11910;52.086;21.066;2024-01-15T01:48:53;21.92;;;15.50;;
23474;SDS011;11910;52.086;21.066;2024-01-15T01:51:20;24.77;;;16.58;;
23474;SDS011;11910;52.086;21.066;2024-01-15T01:53:47;18.48;;;13.10;;
23474;SDS011;11910;52.086;21.066;2024-01-15T01:56:15;19.67;;;14.80;;
23474;SDS011;11910;52.086;21.066;2024-01-15T01:58:41;19.10;;;13.90;;
23474;SDS011;11910;52.086;21.066;2024-01-15T02:01:07;21.08;;;14.10;;
23474;SDS011;11910;52.086;21.066;2024-01-15T02:03:33;18.98;;;14.13;;
23474;SDS011;11910;52.086;21.066;2024-01-15T02:05:59;20.23;;;14.32;;
23474;SDS011;11910;52.086;21.066;2024-01-15T02:08:25;23.63;;;14.93;;
23474;SDS011;11910;52.086;21.066;2024-01-15T02:10:51;21.15;;;14.68;;
23474;SDS011;11910;52.086;21.066;2024-01-15T02:13:17;21.25;;;12.95;;
23474;SDS011;11910;52.086;21.066;2024-01-15T02:15:43;20.15;;;14.55;;
23474;SDS011;11910;52.086;21.066;2024-01-15T02:18:09;20.02;;;13.63;;
23474;SDS011;11910;52.086;21.066;2024-01-15T02:20:35;20.08;;;13.65;;
23474;SDS011;11910;52.086;21.066;2024-01-15T02:23:11;21.52;;;12.98;;
23474;SDS011;11910;52.086;21.066;2024-01-15T02:25:37;19.48;;;13.07;;
23474;SDS011;11910;52.086;21.066;2024-01-15T02:28:04;21.90;;;14.50;;
23474;SDS011;11910;52.086;21.066;2024-01-15T02:30:31;17.77;;;13.52;;
23474;SDS011;11910;52.086;21.066;2024-01-15T02:32:57;21.25;;;14.45;;
23474;SDS011;11910;52.086;21.066;2024-01-15T02:35:23;21.10;;;13.98;;
23474;SDS011;11910;52.086;21.066;2024-01-15T02:37:48;20.92;;;13.70;;
23474;SDS011;11910;52.086;21.066;2024-01-15T02:40:14;21.50;;;14.32;;
23474;SDS011;11910;52.086;21.066;2024-01-15T02:42:40;18.48;;;13.07;;
23474;SDS011;11910;52.086;21.066;2024-01-15T02:45:05;19.10;;;13.20;;
23474;SDS011;11910;52.086;21.066;2024-01-15T02:47:31;20.42;;;12.75;;
23474;SDS011;11910;52.086;21.066;2024-01-15T02:49:56;20.52;;;14.57;;
23474;SDS011;11910;52.086;21.066;2024-01-15T02:52:22;19.65;;;13.63;;
23474;SDS011;11910;52.086;21.066;2024-01-15T02:54:47;21.17;;;14.35;;
23474;SDS011;11910;52.086;21.066;2024-01-15T02:57:13;20.80;;;14.55;;
23474;SDS011;11910;52.086;21.066;2024-01-15T02:59:38;24.15;;;14.70;;
23474;SDS011;11910;52.086;21.066;2024-01-15T03:02:04;20.35;;;15.02;;
23474;SDS011;11910;52.086;21.066;2024-01-15T03:04:30;20.42;;;13.57;;
23474;SDS011;11910;52.086;21.066;2024-01-15T03:06:55;20.33;;;12.93;;
23474;SDS011;11910;52.086;21.066;2024-01-15T03:09:21;20.67;;;14.18;;
23474;SDS011;11910;52.086;21.066;2024-01-15T03:11:46;23.50;;;15.23;;
23474;SDS011;11910;52.086;21.066;2024-01-15T03:14:12;21.77;;;14.88;;
23474;SDS011;11910;52.086;21.066;2024-01-15T03:16:37;18.80;;;13.77;;
23474;SDS011;11910;52.086;21.066;2024-01-15T03:19:03;23.05;;;15.75;;
23474;SDS011;11910;52.086;21.066;2024-01-15T03:21:28;23.55;;;15.10;;
23474;SDS011;11910;52.086;21.066;2024-01-15T03:23:54;26.85;;;17.88;;
23474;SDS011;11910;52.086;21.066;2024-01-15T03:26:20;23.67;;;15.88;;
23474;SDS011;11910;52.086;21.066;2024-01-15T03:28:45;26.02;;;16.98;;
23474;SDS011;11910;52.086;21.066;2024-01-15T03:31:11;24.52;;;15.63;;
23474;SDS011;11910;52.086;21.066;2024-01-15T03:33:37;23.10;;;14.88;;
23474;SDS011;11910;52.086;21.066;2024-01-15T03:36:02;28.95;;;18.05;;
23474;SDS011;11910;52.086;21.066;2024-01-15T03:38:28;24.92;;;16.67;;
23474;SDS011;11910;52.086;21.066;2024-01-15T03:40:54;21.77;;;14.85;;
23474;SDS011;11910;52.086;21.066;2024-01-15T03:43:19;25.45;;;16.20;;
23474;SDS011;11910;52.086;21.066;2024-01-15T03:45:45;25.40;;;16.73;;
23474;SDS011;11910;52.086;21.066;2024-01-15T03:48:11;26.20;;;16.20;;
23474;SDS011;11910;52.086;21.066;2024-01-15T03:50:36;24.25;;;15.52;;
23474;SDS011;11910;52.086;21.066;2024-01-15T03:53:02;23.63;;;14.85;;
23474;SDS011;11910;52.086;21.066;2024-01-15T03:55:28;22.55;;;15.18;;
23474;SDS011;11910;52.086;21.066;2024-01-15T03:57:53;23.30;;;15.80;;
23474;SDS011;11910;52.086;21.066;2024-01-15T04:00:19;21.27;;;14.25;;
23474;SDS011;11910;52.086;21.066;2024-01-15T04:02:44;21.95;;;14.85;;
23474;SDS011;11910;52.086;21.066;2024-01-15T04:05:10;20.65;;;14.10;;
23474;SDS011;11910;52.086;21.066;2024-01-15T04:07:36;19.27;;;12.95;;
23474;SDS011;11910;52.086;21.066;2024-01-15T04:10:01;17.80;;;12.38;;
23474;SDS011;11910;52.086;21.066;2024-01-15T04:12:27;19.35;;;13.60;;
23474;SDS011;11910;52.086;21.066;2024-01-15T04:14:53;19.58;;;13.15;;
23474;SDS011;11910;52.086;21.066;2024-01-15T04:17:19;13.77;;;8.95;;
23474;SDS011;11910;52.086;21.066;2024-01-15T04:19:44;19.83;;;12.68;;
23474;SDS011;11910;52.086;21.066;2024-01-15T04:22:10;16.63;;;12.10;;
23474;SDS011;11910;52.086;21.066;2024-01-15T04:24:36;17.05;;;12.02;;
23474;SDS011;11910;52.086;21.066;2024-01-15T04:27:01;22.17;;;12.82;;
23474;SDS011;11910;52.086;21.066;2024-01-15T04:29:27;17.48;;;12.25;;
23474;SDS011;11910;52.086;21.066;2024-01-15T04:31:53;20.52;;;12.18;;
23474;SDS011;11910;52.086;21.066;2024-01-15T04:34:18;18.73;;;12.57;;
23474;SDS011;11910;52.086;21.066;2024-01-15T04:36:44;17.92;;;12.35;;
23474;SDS011;11910;52.086;21.066;2024-01-15T04:39:09;17.48;;;12.02;;
23474;SDS011;11910;52.086;21.066;2024-01-15T04:41:36;17.90;;;11.43;;
23474;SDS011;11910;52.086;21.066;2024-01-15T04:44:02;16.23;;;11.30;;
23474;SDS011;11910;52.086;21.066;2024-01-15T04:46:28;17.08;;;11.82;;
23474;SDS011;11910;52.086;21.066;2024-01-15T04:48:53;16.17;;;11.38;;
23474;SDS011;11910;52.086;21.066;2024-01-15T04:51:19;17.10;;;11.30;;
23474;SDS011;11910;52.086;21.066;2024-01-15T04:53:44;16.95;;;12.10;;
23474;SDS011;11910;52.086;21.066;2024-01-15T04:56:10;15.18;;;10.60;;
23474;SDS011;11910;52.086;21.066;2024-01-15T04:58:35;16.70;;;11.02;;
23474;SDS011;11910;52.086;21.066;2024-01-15T05:01:01;15.65;;;11.30;;
23474;SDS011;11910;52.086;21.066;2024-01-15T05:03:27;15.57;;;11.50;;
23474;SDS011;11910;52.086;21.066;2024-01-15T05:05:52;15.93;;;10.60;;
23474;SDS011;11910;52.086;21.066;2024-01-15T05:08:18;19.15;;;11.98;;
23474;SDS011;11910;52.086;21.066;2024-01-15T05:10:43;18.45;;;12.00;;
23474;SDS011;11910;52.086;21.066;2024-01-15T05:13:09;16.48;;;11.48;;
23474;SDS011;11910;52.086;21.066;2024-01-15T05:15:35;17.75;;;11.40;;
23474;SDS011;11910;52.086;21.066;2024-01-15T05:18:01;17.80;;;12.25;;
23474;SDS011;11910;52.086;21.066;2024-01-15T05:20:26;16.55;;;11.35;;
23474;SDS011;11910;52.086;21.066;2024-01-15T05:22:52;17.90;;;12.60;;
23474;SDS011;11910;52.086;21.066;2024-01-15T05:25:17;18.00;;;12.68;;
23474;SDS011;11910;52.086;21.066;2024-01-15T05:27:43;17.80;;;12.50;;
23474;SDS011;11910;52.086;21.066;2024-01-15T05:30:08;15.95;;;11.68;;
23474;SDS011;11910;52.086;21.066;2024-01-15T05:32:34;59.08;;;29.02;;
23474;SDS011;11910;52.086;21.066;2024-01-15T05:35:00;16.80;;;12.40;;
23474;SDS011;11910;52.086;21.066;2024-01-15T05:37:25;16.02;;;10.75;;
23474;SDS011;11910;52.086;21.066;2024-01-15T05:39:51;16.05;;;11.75;;
23474;SDS011;11910;52.086;21.066;2024-01-15T05:42:16;14.80;;;10.80;;
23474;SDS011;11910;52.086;21.066;2024-01-15T05:44:42;14.93;;;10.80;;
23474;SDS011;11910;52.086;21.066;2024-01-15T05:47:08;15.07;;;10.52;;
23474;SDS011;11910;52.086;21.066;2024-01-15T05:49:33;12.55;;;9.23;;
23474;SDS011;11910;52.086;21.066;2024-01-15T05:51:59;13.95;;;9.43;;
23474;SDS011;11910;52.086;21.066;2024-01-15T05:54:24;17.48;;;11.10;;
23474;SDS011;11910;52.086;21.066;2024-01-15T05:56:50;14.85;;;10.85;;
23474;SDS011;11910;52.086;21.066;2024-01-15T05:59:15;14.10;;;10.05;;
23474;SDS011;11910;52.086;21.066;2024-01-15T06:01:42;14.73;;;10.93;;
23474;SDS011;11910;52.086;21.066;2024-01-15T06:04:07;14.25;;;10.85;;
23474;SDS011;11910;52.086;21.066;2024-01-15T06:06:33;14.75;;;10.35;;
23474;SDS011;11910;52.086;21.066;2024-01-15T06:08:58;13.07;;;9.18;;
23474;SDS011;11910;52.086;21.066;2024-01-15T06:11:33;17.35;;;10.40;;
23474;SDS011;11910;52.086;21.066;2024-01-15T06:13:58;15.73;;;9.60;;
23474;SDS011;11910;52.086;21.066;2024-01-15T06:16:25;12.35;;;7.68;;
23474;SDS011;11910;52.086;21.066;2024-01-15T06:18:51;15.77;;;11.45;;
23474;SDS011;11910;52.086;21.066;2024-01-15T06:21:16;16.60;;;11.40;;
23474;SDS011;11910;52.086;21.066;2024-01-15T06:23:42;14.93;;;11.10;;
23474;SDS011;11910;52.086;21.066;2024-01-15T06:26:08;14.43;;;9.70;;
23474;SDS011;11910;52.086;21.066;2024-01-15T06:28:34;14.85;;;10.20;;
23474;SDS011;11910;52.086;21.066;2024-01-15T06:30:59;13.63;;;10.80;;
23474;SDS011;11910;52.086;21.066;2024-01-15T06:33:25;15.25;;;9.98;;
23474;SDS011;11910;52.086;21.066;2024-01-15T06:35:50;16.63;;;10.63;;
23474;SDS011;11910;52.086;21.066;2024-01-15T06:38:16;15.20;;;10.65;;
23474;SDS011;11910;52.086;21.066;2024-01-15T06:40:42;16.02;;;10.38;;
23474;SDS011;11910;52.086;21.066;2024-01-15T06:43:10;15.85;;;11.23;;
23474;SDS011;11910;52.086;21.066;2024-01-15T06:45:38;14.52;;;10.52;;
23474;SDS011;11910;52.086;21.066;2024-01-15T06:48:03;13.40;;;9.32;;
23474;SDS011;11910;52.086;21.066;2024-01-15T06:50:29;15.25;;;10.75;;
23474;SDS011;11910;52.086;21.066;2024-01-15T06:52:55;14.48;;;10.75;;
23474;SDS011;11910;52.086;21.066;2024-01-15T06:55:21;11.90;;;8.32;;
23474;SDS011;11910;52.086;21.066;2024-01-15T06:57:46;15.88;;;10.18;;
23474;SDS011;11910;52.086;21.066;2024-01-15T07:00:12;12.65;;;10.05;;
23474;SDS011;11910;52.086;21.066;2024-01-15T07:02:38;14.45;;;10.98;;
23474;SDS011;11910;52.086;21.066;2024-01-15T07:05:04;14.35;;;10.15;;
23474;SDS011;11910;52.086;21.066;2024-01-15T07:07:30;12.77;;;8.63;;
23474;SDS011;11910;52.086;21.066;2024-01-15T07:09:56;17.27;;;11.15;;
23474;SDS011;11910;52.086;21.066;2024-01-15T07:12:22;14.80;;;10.13;;
23474;SDS011;11910;52.086;21.066;2024-01-15T07:14:48;11.65;;;9.00;;
23474;SDS011;11910;52.086;21.066;2024-01-15T07:17:14;14.15;;;10.18;;
23474;SDS011;11910;52.086;21.066;2024-01-15T07:19:39;17.30;;;11.75;;
23474;SDS011;11910;52.086;21.066;2024-01-15T07:22:05;14.32;;;10.90;;
23474;SDS011;11910;52.086;21.066;2024-01-15T07:24:31;14.75;;;10.02;;
23474;SDS011;11910;52.086;21.066;2024-01-15T07:26:59;16.33;;;10.90;;
23474;SDS011;11910;52.086;21.066;2024-01-15T07:29:24;15.65;;;11.13;;
23474;SDS011;11910;52.086;21.066;2024-01-15T07:31:50;16.10;;;12.10;;
23474;SDS011;11910;52.086;21.066;2024-01-15T07:34:16;16.23;;;11.60;;
23474;SDS011;11910;52.086;21.066;2024-01-15T07:36:45;17.35;;;11.35;;
23474;SDS011;11910;52.086;21.066;2024-01-15T07:39:11;17.70;;;12.35;;
23474;SDS011;11910;52.086;21.066;2024-01-15T07:41:36;15.68;;;10.73;;
23474;SDS011;11910;52.086;21.066;2024-01-15T07:44:02;19.30;;;13.32;;
23474;SDS011;11910;52.086;21.066;2024-01-15T07:46:31;17.10;;;12.20;;
23474;SDS011;11910;52.086;21.066;2024-01-15T07:48:57;16.08;;;12.18;;
23474;SDS011;11910;52.086;21.066;2024-01-15T07:51:23;17.98;;;13.15;;
23474;SDS011;11910;52.086;21.066;2024-01-15T07:53:49;17.25;;;12.93;;
23474;SDS011;11910;52.086;21.066;2024-01-15T07:56:15;17.73;;;13.10;;
23474;SDS011;11910;52.086;21.066;2024-01-15T07:58:41;18.65;;;12.52;;
23474;SDS011;11910;52.086;21.066;2024-01-15T08:01:07;21.48;;;14.95;;
23474;SDS011;11910;52.086;21.066;2024-01-15T08:03:33;23.13;;;14.48;;
23474;SDS011;11910;52.086;21.066;2024-01-15T08:05:59;20.38;;;14.45;;
23474;SDS011;11910;52.086;21.066;2024-01-15T08:08:25;19.50;;;12.23;;
23474;SDS011;11910;52.086;21.066;2024-01-15T08:10:53;15.65;;;11.35;;
23474;SDS011;11910;52.086;21.066;2024-01-15T08:13:19;14.05;;;9.50;;
23474;SDS011;11910;52.086;21.066;2024-01-15T08:15:45;20.13;;;12.13;;
23474;SDS011;11910;52.086;21.066;2024-01-15T08:18:11;15.70;;;10.93;;
23474;SDS011;11910;52.086;21.066;2024-01-15T08:20:36;15.90;;;10.00;;
23474;SDS011;11910;52.086;21.066;2024-01-15T08:23:02;17.95;;;12.95;;
23474;SDS011;11910;52.086;21.066;2024-01-15T08:25:28;16.05;;;10.00;;
23474;SDS011;11910;52.086;21.066;2024-01-15T08:27:54;16.50;;;11.48;;
23474;SDS011;11910;52.086;21.066;2024-01-15T08:30:21;16.92;;;11.55;;
23474;SDS011;11910;52.086;21.066;2024-01-15T08:32:49;17.05;;;12.00;;
23474;SDS011;11910;52.086;21.066;2024-01-15T08:35:15;16.15;;;11.73;;
23474;SDS011;11910;52.086;21.066;2024-01-15T08:37:41;16.90;;;12.40;;
23474;SDS011;11910;52.086;21.066;2024-01-15T08:40:06;19.20;;;12.77;;
23474;SDS011;11910;52.086;21.066;2024-01-15T08:42:32;18.15;;;12.07;;
23474;SDS011;11910;52.086;21.066;2024-01-15T08:44:58;15.85;;;11.07;;
23474;SDS011;11910;52.086;21.066;2024-01-15T08:47:23;15.77;;;10.52;;
23474;SDS011;11910;52.086;21.066;2024-01-15T08:49:50;18.10;;;12.57;;
23474;SDS011;11910;52.086;21.066;2024-01-15T08:52:16;18.85;;;12.93;;
23474;SDS011;11910;52.086;21.066;2024-01-15T08:54:41;21.20;;;13.82;;
23474;SDS011;11910;52.086;21.066;2024-01-15T08:57:07;14.90;;;9.77;;
23474;SDS011;11910;52.086;21.066;2024-01-15T08:59:32;17.55;;;11.07;;
23474;SDS011;11910;52.086;21.066;2024-01-15T09:01:58;18.10;;;12.25;;
23474;SDS011;11910;52.086;21.066;2024-01-15T09:04:24;16.20;;;10.77;;
23474;SDS011;11910;52.086;21.066;2024-01-15T09:06:50;17.35;;;11.57;;
23474;SDS011;11910;52.086;21.066;2024-01-15T09:09:15;18.48;;;11.77;;
23474;SDS011;11910;52.086;21.066;2024-01-15T09:11:41;14.50;;;10.48;;
23474;SDS011;11910;52.086;21.066;2024-01-15T09:14:07;13.95;;;9.68;;
23474;SDS011;11910;52.086;21.066;2024-01-15T09:16:33;12.27;;;8.82;;
23474;SDS011;11910;52.086;21.066;2024-01-15T09:18:59;10.50;;;7.50;;
23474;SDS011;11910;52.086;21.066;2024-01-15T09:21:24;13.70;;;9.02;;
23474;SDS011;11910;52.086;21.066;2024-01-15T09:23:50;14.10;;;9.10;;
23474;SDS011;11910;52.086;21.066;2024-01-15T09:26:16;15.43;;;8.00;;
23474;SDS011;11910;52.086;21.066;2024-01-15T09:28:42;11.50;;;8.15;;
23474;SDS011;11910;52.086;21.066;2024-01-15T09:31:07;12.85;;;7.30;;
23474;SDS011;11910;52.086;21.066;2024-01-15T09:33:33;11.65;;;7.30;;
23474;SDS011;11910;52.086;21.066;2024-01-15T09:36:02;11.27;;;7.35;;
23474;SDS011;11910;52.086;21.066;2024-01-15T09:38:31;11.73;;;7.20;;
23474;SDS011;11910;52.086;21.066;2024-01-15T09:40:56;9.98;;;6.47;;
23474;SDS011;11910;52.086;21.066;2024-01-15T09:43:22;11.30;;;6.68;;
23474;SDS011;11910;52.086;21.066;2024-01-15T09:45:49;11.23;;;6.82;;
23474;SDS011;11910;52.086;21.066;2024-01-15T09:48:15;11.77;;;6.22;;
23474;SDS011;11910;52.086;21.066;2024-01-15T09:50:41;8.60;;;4.10;;
23474;SDS011;11910;52.086;21.066;2024-01-15T09:53:07;10.73;;;6.72;;
23474;SDS011;11910;52.086;21.066;2024-01-15T09:55:35;8.45;;;4.32;;
23474;SDS011;11910;52.086;21.066;2024-01-15T09:58:03;10.60;;;5.88;;
23474;SDS011;11910;52.086;21.066;2024-01-15T10:00:29;6.93;;;4.38;;
23474;SDS011;11910;52.086;21.066;2024-01-15T10:02:57;10.35;;;4.82;;
23474;SDS011;11910;52.086;21.066;2024-01-15T10:05:24;10.13;;;4.72;;
23474;SDS011;11910;52.086;21.066;2024-01-15T10:07:50;8.48;;;4.97;;
23474;SDS011;11910;52.086;21.066;2024-01-15T10:10:18;8.77;;;4.53;;
23474;SDS011;11910;52.086;21.066;2024-01-15T10:12:44;10.38;;;5.40;;
23474;SDS011;11910;52.086;21.066;2024-01-15T10:15:10;10.77;;;5.68;;
23474;SDS011;11910;52.086;21.066;2024-01-15T10:17:37;10.60;;;4.78;;
23474;SDS011;11910;52.086;21.066;2024-01-15T10:20:07;9.35;;;4.60;;
23474;SDS011;11910;52.086;21.066;2024-01-15T10:22:39;9.15;;;5.07;;
23474;SDS011;11910;52.086;21.066;2024-01-15T10:25:09;8.80;;;5.43;;
23474;SDS011;11910;52.086;21.066;2024-01-15T10:27:35;11.55;;;5.45;;
23474;SDS011;11910;52.086;21.066;2024-01-15T10:30:01;8.77;;;5.28;;
23474;SDS011;11910;52.086;21.066;2024-01-15T10:32:28;9.43;;;5.50;;
23474;SDS011;11910;52.086;21.066;2024-01-15T10:34:54;8.02;;;4.85;;
23474;SDS011;11910;52.086;21.066;2024-01-15T10:37:19;9.35;;;5.18;;
23474;SDS011;11910;52.086;21.066;2024-01-15T10:39:48;7.72;;;5.60;;
23474;SDS011;11910;52.086;21.066;2024-01-15T10:42:14;7.25;;;4.20;;
23474;SDS011;11910;52.086;21.066;2024-01-15T10:44:41;8.65;;;4.47;;
23474;SDS011;11910;52.086;21.066;2024-01-15T10:47:08;10.23;;;5.57;;
23474;SDS011;11910;52.086;21.066;2024-01-15T10:49:34;8.25;;;4.32;;
23474;SDS011;11910;52.086;21.066;2024-01-15T10:52:00;9.75;;;5.72;;
23474;SDS011;11910;52.086;21.066;2024-01-15T10:54:27;10.60;;;7.15;;
23474;SDS011;11910;52.086;21.066;2024-01-15T10:56:52;9.02;;;4.70;;
23474;SDS011;11910;52.086;21.066;2024-01-15T10:59:20;12.45;;;6.85;;
23474;SDS011;11910;52.086;21.066;2024-01-15T11:01:47;10.25;;;6.65;;
23474;SDS011;11910;52.086;21.066;2024-01-15T11:04:13;8.55;;;5.25;;
23474;SDS011;11910;52.086;21.066;2024-01-15T11:06:44;12.43;;;5.93;;
23474;SDS011;11910;52.086;21.066;2024-01-15T11:09:11;9.93;;;5.97;;
23474;SDS011;11910;52.086;21.066;2024-01-15T11:11:44;11.48;;;6.68;;
23474;SDS011;11910;52.086;21.066;2024-01-15T11:14:33;11.80;;;7.88;;
23474;SDS011;11910;52.086;21.066;2024-01-15T11:17:02;15.15;;;7.88;;
23474;SDS011;11910;52.086;21.066;2024-01-15T11:19:35;13.95;;;7.25;;
23474;SDS011;11910;52.086;21.066;2024-01-15T11:24:55;9.88;;;5.10;;
23474;SDS011;11910;52.086;21.066;2024-01-15T11:27:43;10.02;;;6.47;;
23474;SDS011;11910;52.086;21.066;2024-01-15T11:30:12;10.68;;;7.07;;
23474;SDS011;11910;52.086;21.066;2024-01-15T11:32:38;13.18;;;6.55;;
23474;SDS011;11910;52.086;21.066;2024-01-15T11:35:08;11.75;;;6.85;;
23474;SDS011;11910;52.086;21.066;2024-01-15T11:43:02;9.02;;;5.60;;
23474;SDS011;11910;52.086;21.066;2024-01-15T11:45:34;8.45;;;6.03;;
23474;SDS011;11910;52.086;21.066;2024-01-15T11:48:11;9.63;;;6.07;;
23474;SDS011;11910;52.086;21.066;2024-01-15T11:50:44;6.43;;;3.53;;
23474;SDS011;11910;52.086;21.066;2024-01-15T11:55:53;11.07;;;6.38;;
23474;SDS011;11910;52.086;21.066;2024-01-15T11:58:23;9.23;;;6.38;;
23474;SDS011;11910;52.086;21.066;2024-01-15T12:00:50;10.07;;;5.53;;
23474;SDS011;11910;52.086;21.066;2024-01-15T12:03:17;9.38;;;6.38;;
23474;SDS011;11910;52.086;21.066;2024-01-15T12:05:45;12.55;;;6.85;;
23474;SDS011;11910;52.086;21.066;2024-01-15T12:08:11;10.75;;;5.75;;
23474;SDS011;11910;52.086;21.066;2024-01-15T12:10:37;11.57;;;7.43;;
23474;SDS011;11910;52.086;21.066;2024-01-15T12:15:35;12.20;;;7.40;;
23474;SDS011;11910;52.086;21.066;2024-01-15T12:18:01;12.30;;;8.13;;
23474;SDS011;11910;52.086;21.066;2024-01-15T12:20:28;13.65;;;8.30;;
23474;SDS011;11910;52.086;21.066;2024-01-15T12:22:55;14.27;;;8.88;;
23474;SDS011;11910;52.086;21.066;2024-01-15T12:25:21;16.42;;;8.60;;
23474;SDS011;11910;52.086;21.066;2024-01-15T12:27:48;15.40;;;8.82;;
23474;SDS011;11910;52.086;21.066;2024-01-15T12:30:14;15.93;;;8.85;;
23474;SDS011;11910;52.086;21.066;2024-01-15T12:32:43;12.38;;;6.25;;
23474;SDS011;11910;52.086;21.066;2024-01-15T12:35:12;13.90;;;8.85;;
23474;SDS011;11910;52.086;21.066;2024-01-15T12:37:39;16.42;;;9.45;;
23474;SDS011;11910;52.086;21.066;2024-01-15T12:40:06;16.08;;;9.13;;
23474;SDS011;11910;52.086;21.066;2024-01-15T12:42:33;14.82;;;8.15;;
23474;SDS011;11910;52.086;21.066;2024-01-15T12:44:59;14.55;;;8.57;;
23474;SDS011;11910;52.086;21.066;2024-01-15T12:47:25;13.57;;;8.98;;
23474;SDS011;11910;52.086;21.066;2024-01-15T12:49:52;14.30;;;8.13;;
23474;SDS011;11910;52.086;21.066;2024-01-15T12:52:20;12.85;;;8.27;;
23474;SDS011;11910;52.086;21.066;2024-01-15T12:54:49;13.05;;;8.13;;
23474;SDS011;11910;52.086;21.066;2024-01-15T12:57:15;13.68;;;8.20;;
23474;SDS011;11910;52.086;21.066;2024-01-15T12:59:42;12.25;;;8.32;;
23474;SDS011;11910;52.086;21.066;2024-01-15T13:02:10;13.00;;;7.45;;
23474;SDS011;11910;52.086;21.066;2024-01-15T13:04:36;12.98;;;7.75;;
23474;SDS011;11910;52.086;21.066;2024-01-15T13:07:02;11.27;;;6.22;;
23474;SDS011;11910;52.086;21.066;2024-01-15T13:09:27;17.73;;;10.10;;
23474;SDS011;11910;52.086;21.066;2024-01-15T13:11:54;16.85;;;10.00;;
23474;SDS011;11910;52.086;21.066;2024-01-15T13:14:20;18.75;;;10.73;;
23474;SDS011;11910;52.086;21.066;2024-01-15T13:16:45;20.00;;;12.07;;
23474;SDS011;11910;52.086;21.066;2024-01-15T13:19:11;17.13;;;10.10;;
23474;SDS011;11910;52.086;21.066;2024-01-15T13:21:38;16.85;;;9.55;;
23474;SDS011;11910;52.086;21.066;2024-01-15T13:24:06;20.08;;;10.93;;
23474;SDS011;11910;52.086;21.066;2024-01-15T13:26:32;25.08;;;13.32;;
23474;SDS011;11910;52.086;21.066;2024-01-15T13:29:02;24.23;;;14.32;;
23474;SDS011;11910;52.086;21.066;2024-01-15T13:31:31;19.60;;;12.15;;
23474;SDS011;11910;52.086;21.066;2024-01-15T13:33:57;21.60;;;12.27;;
23474;SDS011;11910;52.086;21.066;2024-01-15T13:36:23;15.90;;;9.00;;
23474;SDS011;11910;52.086;21.066;2024-01-15T13:38:50;12.45;;;7.40;;
23474;SDS011;11910;52.086;21.066;2024-01-15T13:41:16;18.63;;;11.50;;
23474;SDS011;11910;52.086;21.066;2024-01-15T13:43:49;17.80;;;11.15;;
23474;SDS011;11910;52.086;21.066;2024-01-15T13:46:16;20.98;;;11.68;;
23474;SDS011;11910;52.086;21.066;2024-01-15T13:48:42;20.75;;;11.25;;
23474;SDS011;11910;52.086;21.066;2024-01-15T13:51:08;20.27;;;12.25;;
23474;SDS011;11910;52.086;21.066;2024-01-15T13:53:33;23.80;;;13.02;;
23474;SDS011;11910;52.086;21.066;2024-01-15T13:55:59;20.52;;;11.93;;
23474;SDS011;11910;52.086;21.066;2024-01-15T13:58:24;20.85;;;11.95;;
23474;SDS011;11910;52.086;21.066;2024-01-15T14:00:50;19.67;;;11.43;;
23474;SDS011;11910;52.086;21.066;2024-01-15T14:03:17;15.30;;;8.20;;
23474;SDS011;11910;52.086;21.066;2024-01-15T14:05:44;20.23;;;12.07;;
23474;SDS011;11910;52.086;21.066;2024-01-15T14:08:09;19.95;;;11.45;;
23474;SDS011;11910;52.086;21.066;2024-01-15T14:10:35;20.00;;;11.15;;
23474;SDS011;11910;52.086;21.066;2024-01-15T14:13:02;19.85;;;11.77;;
23474;SDS011;11910;52.086;21.066;2024-01-15T14:15:28;21.00;;;12.23;;
23474;SDS011;11910;52.086;21.066;2024-01-15T14:17:54;19.48;;;10.70;;
23474;SDS011;11910;52.086;21.066;2024-01-15T14:20:20;19.20;;;10.80;;
23474;SDS011;11910;52.086;21.066;2024-01-15T14:22:46;20.95;;;11.95;;